createdAt,value
2023-02-13T00:00:29.152Z,58.80
2023-02-13T00:02:57.366Z,58.80
2023-02-13T00:05:25.112Z,58.80
2023-02-13T00:07:52.889Z,58.80
2023-02-13T00:10:22.145Z,58.80
2023-02-13T00:12:50.572Z,58.70
2023-02-13T00:15:18.516Z,58.70
2023-02-13T00:17:46.307Z,58.70
2023-02-13T00:20:14.428Z,58.70
2023-02-13T00:22:42.405Z,58.80
2023-02-13T00:25:10.554Z,58.80
2023-02-13T00:27:39.835Z,58.80
2023-02-13T00:30:08.719Z,58.80
2023-02-13T00:32:36.520Z,58.70
2023-02-13T00:35:04.534Z,58.70
2023-02-13T00:37:32.623Z,58.80
2023-02-13T00:40:00.596Z,58.80
2023-02-13T00:42:28.353Z,58.80
2023-02-13T00:44:57.598Z,58.80
2023-02-13T00:47:25.529Z,58.80
2023-02-13T00:49:53.526Z,58.70
2023-02-13T00:52:21.491Z,58.80
2023-02-13T00:54:49.260Z,58.80
2023-02-13T00:57:17.018Z,58.80
2023-02-13T00:59:45.438Z,59.50
2023-02-13T01:02:14.839Z,58.90
2023-02-13T01:04:43.282Z,58.80
2023-02-13T01:07:11.213Z,58.90
2023-02-13T01:09:39.556Z,58.80
2023-02-13T01:12:07.839Z,58.80
2023-02-13T01:14:36.293Z,58.90
2023-02-13T01:17:04.241Z,58.90
2023-02-13T01:19:33.805Z,58.80
2023-02-13T01:22:01.792Z,58.80
2023-02-13T01:24:30.171Z,58.80
2023-02-13T01:26:58.022Z,58.90
2023-02-13T01:29:26.158Z,58.90
2023-02-13T01:31:54.717Z,58.90
2023-02-13T01:34:22.636Z,58.90
2023-02-13T01:36:52.047Z,58.80
2023-02-13T01:39:20.023Z,58.80
2023-02-13T01:41:48.393Z,58.90
2023-02-13T01:44:51.220Z,58.90
2023-02-13T01:47:22.386Z,58.80
2023-02-13T01:49:50.070Z,59.00
2023-02-13T01:52:19.912Z,59.00
2023-02-13T01:54:47.628Z,58.90
2023-02-13T01:57:17.541Z,58.90
2023-02-13T01:59:47.246Z,59.00
2023-02-13T02:02:15.491Z,58.90
2023-02-13T02:04:43.254Z,59.00
2023-02-13T02:07:12.838Z,59.00
2023-02-13T02:09:44.083Z,58.90
2023-02-13T02:12:14.713Z,58.90
2023-02-13T02:14:42.399Z,59.00
2023-02-13T02:17:10.132Z,59.00
2023-02-13T02:19:39.823Z,59.10
2023-02-13T02:22:19.305Z,59.00
2023-02-13T02:25:31.688Z,58.90
2023-02-13T02:28:18.503Z,58.90
2023-02-13T02:31:14.229Z,59.00
2023-02-13T02:33:49.920Z,59.00
2023-02-13T02:36:24.122Z,59.00
2023-02-13T02:39:00.776Z,59.00
2023-02-13T02:41:42.955Z,59.10
2023-02-13T02:44:19.385Z,59.20
2023-02-13T02:47:15.555Z,59.00
2023-02-13T02:50:02.191Z,59.10
2023-02-13T02:52:36.601Z,59.00
2023-02-13T02:55:08.449Z,59.00
2023-02-13T02:57:52.930Z,59.00
2023-02-13T03:00:39.482Z,59.10
2023-02-13T03:03:25.533Z,59.00
2023-02-13T03:06:14.521Z,59.10
2023-02-13T03:09:00.877Z,59.10
2023-02-13T03:11:55.096Z,59.20
2023-02-13T03:14:22.834Z,59.10
2023-02-13T03:17:07.944Z,59.20
2023-02-13T03:19:59.977Z,59.20
2023-02-13T03:22:35.324Z,59.30
2023-02-13T03:25:09.135Z,59.30
2023-02-13T03:28:00.178Z,59.20
2023-02-13T03:30:31.986Z,59.20
2023-02-13T03:33:06.508Z,59.30
2023-02-13T03:35:54.824Z,59.20
2023-02-13T03:38:25.964Z,59.10
2023-02-13T03:41:14.510Z,59.20
2023-02-13T03:43:49.183Z,59.20
2023-02-13T03:46:17.099Z,59.20
2023-02-13T03:49:03.123Z,59.20
2023-02-13T03:51:33.508Z,59.30
2023-02-13T03:54:05.221Z,59.20
2023-02-13T03:56:51.020Z,59.30
2023-02-13T03:59:23.025Z,59.20
2023-02-13T04:01:55.837Z,59.40
2023-02-13T04:04:27.266Z,59.20
2023-02-13T04:06:57.273Z,59.30
2023-02-13T04:09:27.270Z,59.30
2023-02-13T04:11:58.401Z,59.20
2023-02-13T04:14:27.491Z,59.30
2023-02-13T04:16:57.734Z,59.30
2023-02-13T04:19:26.015Z,59.30
2023-02-13T04:21:57.135Z,59.40
2023-02-13T04:24:26.344Z,59.20
2023-02-13T04:26:54.594Z,59.20
2023-02-13T04:29:22.518Z,59.40
2023-02-13T04:31:50.561Z,59.30
2023-02-13T04:34:18.730Z,59.30
2023-02-13T04:36:46.874Z,59.40
2023-02-13T04:39:15.060Z,59.40
2023-02-13T04:41:44.478Z,59.40
2023-02-13T04:44:12.595Z,59.40
2023-02-13T04:46:40.866Z,59.50
2023-02-13T04:49:08.622Z,59.30
2023-02-13T04:51:36.973Z,59.40
2023-02-13T04:54:04.982Z,59.50
2023-02-13T04:56:33.011Z,59.40
2023-02-13T04:59:02.519Z,59.50
2023-02-13T05:01:31.101Z,59.40
2023-02-13T05:03:59.023Z,59.50
2023-02-13T05:06:27.503Z,59.40
2023-02-13T05:08:55.407Z,59.40
2023-02-13T05:11:23.223Z,59.50
2023-02-13T05:13:50.948Z,59.40
2023-02-13T05:16:20.089Z,59.40
2023-02-13T05:18:48.243Z,59.30
2023-02-13T05:21:33.856Z,59.40
2023-02-13T05:24:01.583Z,59.40
2023-02-13T05:26:29.260Z,59.50
2023-02-13T05:29:14.745Z,59.40
2023-02-13T05:31:44.268Z,59.40
2023-02-13T05:34:12.162Z,59.50
2023-02-13T05:36:40.055Z,59.40
2023-02-13T05:39:08.626Z,59.40
2023-02-13T05:41:36.316Z,59.40
2023-02-13T05:44:04.572Z,59.40
2023-02-13T05:46:32.300Z,59.40
2023-02-13T05:49:03.180Z,59.50
2023-02-13T05:51:32.245Z,59.50
2023-02-13T05:54:00.740Z,59.50
2023-02-13T05:56:28.866Z,59.40
2023-02-13T05:58:57.164Z,59.50
2023-02-13T06:01:25.236Z,59.50
2023-02-13T06:03:53.430Z,59.40
2023-02-13T06:06:22.788Z,59.40
2023-02-13T06:08:50.693Z,59.60
2023-02-13T06:11:18.957Z,59.50
2023-02-13T06:13:46.866Z,59.60
2023-02-13T06:16:15.303Z,59.50
2023-02-13T06:18:43.237Z,59.50
2023-02-13T06:21:11.117Z,59.60
2023-02-13T06:23:40.655Z,59.60
2023-02-13T06:26:09.759Z,59.60
2023-02-13T06:28:37.994Z,59.50
2023-02-13T06:31:06.748Z,59.80
2023-02-13T06:33:34.871Z,59.60
2023-02-13T06:36:03.292Z,59.60
2023-02-13T06:38:32.106Z,59.60
2023-02-13T06:41:02.688Z,59.70
2023-02-13T06:43:30.690Z,59.60
2023-02-13T06:45:58.655Z,59.50
2023-02-13T06:48:27.083Z,59.50
2023-02-13T06:50:55.224Z,59.50
2023-02-13T06:53:25.188Z,59.50
2023-02-13T06:55:53.907Z,59.60
2023-02-13T06:58:23.854Z,59.50
2023-02-13T07:00:51.948Z,59.60
2023-02-13T07:03:20.271Z,59.60
2023-02-13T07:05:48.341Z,59.60
2023-02-13T07:08:16.679Z,59.50
2023-02-13T07:10:44.675Z,59.50
2023-02-13T07:13:13.982Z,59.50
2023-02-13T07:15:43.405Z,59.60
2023-02-13T07:18:11.969Z,59.60
2023-02-13T07:20:39.895Z,59.60
2023-02-13T07:23:08.030Z,59.60
2023-02-13T07:25:36.084Z,59.70
2023-02-13T07:28:04.863Z,59.50
2023-02-13T07:30:33.096Z,59.70
2023-02-13T07:33:02.810Z,59.50
2023-02-13T07:35:31.338Z,59.60
2023-02-13T07:38:00.510Z,59.60
2023-02-13T07:40:28.585Z,59.60
2023-02-13T07:42:56.865Z,59.70
2023-02-13T07:45:24.910Z,59.80
2023-02-13T07:47:52.878Z,59.50
2023-02-13T07:50:22.702Z,59.70
2023-02-13T07:52:55.082Z,59.60
2023-02-13T07:55:23.086Z,59.60
2023-02-13T07:57:51.189Z,59.60
2023-02-13T08:00:20.178Z,59.60
2023-02-13T08:02:47.986Z,59.70
2023-02-13T08:05:16.017Z,59.70
2023-02-13T08:07:45.437Z,59.60
2023-02-13T08:10:31.861Z,59.70
2023-02-13T08:12:59.750Z,59.60
2023-02-13T08:15:27.657Z,59.70
2023-02-13T08:17:55.351Z,59.60
2023-02-13T08:20:23.966Z,59.60
2023-02-13T08:22:53.120Z,59.60
2023-02-13T08:25:21.029Z,59.60
2023-02-13T08:27:49.015Z,59.60
2023-02-13T08:30:17.297Z,59.60
2023-02-13T08:32:53.856Z,59.60
2023-02-13T08:35:22.695Z,59.60
2023-02-13T08:37:50.570Z,59.60
2023-02-13T08:40:20.219Z,59.50
2023-02-13T08:42:48.540Z,59.50
2023-02-13T08:45:16.497Z,59.50
2023-02-13T08:47:44.417Z,59.50
2023-02-13T08:50:12.681Z,59.60
2023-02-13T08:52:40.565Z,59.50
2023-02-13T08:55:08.729Z,59.50
2023-02-13T08:57:37.737Z,59.60
2023-02-13T09:00:06.121Z,59.40
2023-02-13T09:02:33.808Z,59.40
2023-02-13T09:05:01.916Z,59.50
2023-02-13T09:07:29.591Z,59.50
2023-02-13T09:09:57.879Z,59.40
2023-02-13T09:12:25.868Z,59.40
2023-02-13T09:14:55.524Z,59.40
2023-02-13T09:17:23.381Z,59.40
2023-02-13T09:19:51.630Z,59.30
2023-02-13T09:22:19.566Z,59.40
2023-02-13T09:24:47.878Z,59.30
2023-02-13T09:27:15.700Z,59.30
2023-02-13T09:29:43.907Z,59.40
2023-02-13T09:32:13.103Z,59.40
2023-02-13T09:34:41.173Z,59.20
2023-02-13T09:37:08.878Z,57.00
2023-02-13T09:39:36.932Z,58.00
2023-02-13T09:42:04.810Z,58.70
2023-02-13T09:44:35.988Z,58.40
2023-02-13T09:47:05.686Z,58.90
2023-02-13T09:49:36.640Z,59.00
2023-02-13T09:52:04.952Z,59.10
2023-02-13T09:54:33.002Z,64.00
2023-02-13T09:57:02.084Z,66.50
2023-02-13T09:59:35.840Z,63.00
2023-02-13T10:02:09.305Z,60.50
2023-02-13T10:04:43.244Z,58.80
2023-02-13T10:07:16.361Z,58.10
2023-02-13T10:09:48.011Z,57.20
2023-02-13T10:12:26.939Z,56.50
2023-02-13T10:14:59.723Z,55.90
2023-02-13T10:17:29.667Z,55.60
2023-02-13T10:20:01.854Z,55.20
2023-02-13T10:22:32.164Z,54.80
2023-02-13T10:25:02.274Z,54.50
2023-02-13T10:27:35.919Z,54.30
2023-02-13T10:30:06.253Z,54.00
2023-02-13T10:32:39.807Z,53.80
2023-02-13T10:35:21.100Z,53.60
2023-02-13T10:37:51.016Z,53.50
2023-02-13T10:40:19.269Z,53.40
2023-02-13T10:42:47.907Z,53.40
2023-02-13T10:45:24.865Z,53.00
2023-02-13T10:47:59.253Z,53.10
2023-02-13T10:50:31.949Z,53.10
2023-02-13T10:53:13.769Z,53.20
2023-02-13T10:56:21.774Z,53.20
2023-02-13T10:58:58.848Z,53.30
2023-02-13T11:01:31.301Z,53.40
2023-02-13T11:04:06.813Z,53.40
2023-02-13T11:06:37.828Z,53.50
2023-02-13T11:09:06.915Z,53.60
2023-02-13T11:11:36.091Z,53.80
2023-02-13T11:14:11.897Z,53.80
2023-02-13T11:16:41.906Z,53.80
2023-02-13T11:19:19.663Z,54.00
2023-02-13T11:21:49.800Z,54.00
2023-02-13T11:24:22.651Z,54.30
2023-02-13T11:26:55.132Z,54.40
2023-02-13T11:29:25.511Z,54.20
2023-02-13T11:32:05.525Z,54.40
2023-02-13T11:34:34.091Z,54.50
2023-02-13T11:37:20.785Z,54.40
2023-02-13T11:39:51.336Z,54.50
2023-02-13T11:42:22.517Z,54.60
2023-02-13T11:44:51.668Z,54.60
2023-02-13T11:47:30.903Z,54.50
2023-02-13T11:49:58.873Z,54.70
2023-02-13T11:52:29.435Z,54.70
2023-02-13T11:54:57.728Z,54.90
2023-02-13T11:57:30.027Z,54.70
2023-02-13T11:59:57.999Z,54.90
2023-02-13T12:02:27.422Z,54.90
2023-02-13T12:04:56.384Z,55.00
2023-02-13T12:07:27.899Z,55.00
2023-02-13T12:09:59.414Z,55.40
2023-02-13T12:12:31.150Z,55.30
2023-02-13T12:14:58.904Z,54.60
2023-02-13T12:17:32.553Z,55.00
2023-02-13T12:20:00.535Z,54.60
2023-02-13T12:22:35.193Z,54.80
2023-02-13T12:25:20.345Z,55.20
2023-02-13T12:27:53.138Z,55.50
2023-02-13T12:30:35.730Z,55.90
2023-02-13T12:33:10.558Z,56.00
2023-02-13T12:35:46.063Z,56.30
2023-02-13T12:38:22.127Z,56.50
2023-02-13T12:41:00.997Z,56.60
2023-02-13T12:43:55.565Z,56.70
2023-02-13T12:46:26.390Z,56.90
2023-02-13T12:48:57.517Z,57.10
2023-02-13T12:51:31.995Z,57.20
2023-02-13T12:54:11.569Z,57.40
2023-02-13T12:57:06.056Z,57.40
2023-02-13T12:59:39.497Z,57.50
2023-02-13T13:02:21.809Z,57.40
2023-02-13T13:04:54.634Z,57.60
2023-02-13T13:07:41.364Z,57.60
2023-02-13T13:10:36.826Z,57.60
2023-02-13T13:13:09.853Z,57.70
2023-02-13T13:15:41.039Z,57.80
2023-02-13T13:18:15.677Z,57.90
2023-02-13T13:20:59.703Z,57.90
2023-02-13T13:23:31.236Z,57.90
2023-02-13T13:26:05.942Z,57.90
2023-02-13T13:28:35.352Z,57.90
2023-02-13T13:31:03.470Z,58.10
2023-02-13T13:33:31.788Z,58.20
2023-02-13T13:36:03.157Z,58.10
2023-02-13T13:38:39.701Z,58.10
2023-02-13T13:41:12.450Z,58.10
2023-02-13T13:43:45.987Z,58.20
2023-02-13T13:46:16.817Z,58.30
2023-02-13T13:49:04.655Z,58.20
2023-02-13T13:51:32.618Z,58.20
2023-02-13T13:54:35.554Z,58.20
2023-02-13T13:57:08.790Z,58.40
2023-02-13T14:00:25.100Z,58.30
2023-02-13T14:03:08.172Z,58.40
2023-02-13T14:05:41.056Z,58.80
2023-02-13T14:08:49.355Z,58.50
2023-02-13T14:11:28.320Z,58.40
2023-02-13T14:13:58.018Z,58.30
2023-02-13T14:16:39.782Z,58.50
2023-02-13T14:19:07.894Z,58.50
2023-02-13T14:21:35.829Z,58.50
2023-02-13T14:24:04.614Z,58.70
2023-02-13T14:26:36.544Z,58.60
2023-02-13T14:29:29.437Z,58.70
2023-02-13T14:32:01.840Z,58.70
2023-02-13T14:34:32.141Z,58.60
2023-02-13T14:37:07.212Z,58.70
2023-02-13T14:39:36.117Z,58.70
2023-02-13T14:42:04.033Z,58.80
2023-02-13T14:44:35.234Z,58.70
2023-02-13T14:47:04.513Z,58.90
2023-02-13T14:49:33.247Z,58.80
2023-02-13T14:52:02.481Z,58.80
2023-02-13T14:54:31.808Z,58.80
2023-02-13T14:57:10.103Z,58.90
2023-02-13T14:59:41.379Z,58.90
2023-02-13T15:02:17.214Z,59.00
2023-02-13T15:04:46.096Z,58.90
2023-02-13T15:07:16.255Z,59.00
2023-02-13T15:09:47.816Z,59.00
2023-02-13T15:12:30.931Z,59.00
2023-02-13T15:15:01.942Z,58.90
2023-02-13T15:17:30.922Z,58.90
2023-02-13T15:20:04.878Z,59.20
2023-02-13T15:22:34.058Z,59.20
2023-02-13T15:25:02.040Z,59.20
2023-02-13T15:27:30.792Z,59.00
2023-02-13T15:30:01.901Z,59.10
2023-02-13T15:32:32.456Z,59.20
2023-02-13T15:35:00.745Z,59.20
2023-02-13T15:37:29.988Z,59.30
2023-02-13T15:40:12.851Z,59.30
2023-02-13T15:42:40.960Z,59.30
2023-02-13T15:45:15.508Z,59.40
2023-02-13T15:47:43.662Z,59.30
2023-02-13T15:50:20.904Z,59.40
2023-02-13T15:52:48.972Z,59.50
2023-02-13T15:55:23.841Z,59.50
2023-02-13T15:57:51.615Z,59.40
2023-02-13T16:00:24.140Z,59.50
2023-02-13T16:02:52.374Z,59.50
2023-02-13T16:05:38.297Z,59.60
2023-02-13T16:08:29.497Z,59.60
2023-02-13T16:11:29.224Z,59.70
2023-02-13T16:14:06.206Z,59.70
2023-02-13T16:16:37.646Z,59.70
2023-02-13T16:19:05.631Z,59.90
2023-02-13T16:21:35.867Z,60.10
2023-02-13T16:24:04.765Z,60.00
2023-02-13T16:26:32.620Z,59.90
2023-02-13T16:29:00.514Z,60.20
2023-02-13T16:31:28.555Z,60.00
2023-02-13T16:33:58.038Z,60.10
2023-02-13T16:36:29.058Z,60.10
2023-02-13T16:38:57.168Z,60.10
2023-02-13T16:41:31.814Z,60.20
2023-02-13T16:43:59.758Z,60.20
2023-02-13T16:46:35.030Z,60.30
2023-02-13T16:49:18.194Z,60.40
2023-02-13T16:51:48.071Z,60.40
2023-02-13T16:54:19.688Z,60.40
2023-02-13T16:56:49.148Z,60.40
2023-02-13T16:59:46.342Z,60.40
2023-02-13T17:02:19.125Z,60.40
2023-02-13T17:04:50.636Z,60.50
2023-02-13T17:07:20.455Z,60.50
2023-02-13T17:09:53.524Z,60.50
2023-02-13T17:12:21.398Z,60.50
2023-02-13T17:14:49.212Z,60.60
2023-02-13T17:17:18.427Z,60.60
2023-02-13T17:19:46.167Z,60.70
2023-02-13T17:22:24.432Z,60.70
2023-02-13T17:24:52.404Z,60.60
2023-02-13T17:27:22.531Z,60.50
2023-02-13T17:29:50.745Z,60.60
2023-02-13T17:32:19.483Z,60.80
2023-02-13T17:34:47.853Z,60.80
2023-02-13T17:37:18.916Z,60.70
2023-02-13T17:39:48.657Z,60.80
2023-02-13T17:42:18.939Z,61.50
2023-02-13T17:44:47.127Z,60.80
2023-02-13T17:47:15.130Z,60.90
2023-02-13T17:49:43.105Z,60.80
2023-02-13T17:52:14.789Z,60.80
2023-02-13T17:54:44.018Z,60.80
2023-02-13T17:57:14.082Z,60.90
2023-02-13T17:59:41.953Z,60.90
2023-02-13T18:02:17.557Z,61.00
2023-02-13T18:04:45.627Z,61.00
2023-02-13T18:07:13.890Z,61.00
2023-02-13T18:09:42.023Z,61.10
2023-02-13T18:12:13.668Z,61.20
2023-02-13T18:14:44.691Z,61.20
2023-02-13T18:17:24.540Z,61.20
2023-02-13T18:20:01.953Z,61.10
2023-02-13T18:22:30.621Z,61.10
2023-02-13T18:24:58.676Z,61.20
2023-02-13T18:27:28.268Z,61.20
2023-02-13T18:29:56.238Z,61.20
2023-02-13T18:32:24.411Z,61.20
2023-02-13T18:34:52.426Z,61.80
2023-02-13T18:37:20.468Z,61.20
2023-02-13T18:39:48.375Z,61.30
2023-02-13T18:42:16.398Z,61.30
2023-02-13T18:44:46.278Z,61.40
2023-02-13T18:47:14.211Z,61.30
2023-02-13T18:49:42.094Z,61.40
2023-02-13T18:52:19.137Z,61.40
2023-02-13T18:54:47.044Z,61.50
2023-02-13T18:57:15.061Z,61.40
2023-02-13T18:59:48.599Z,61.50
2023-02-13T19:02:16.486Z,61.40
2023-02-13T19:04:44.348Z,61.50
2023-02-13T19:07:14.386Z,61.50
2023-02-13T19:09:43.871Z,61.30
2023-02-13T19:12:11.892Z,61.30
2023-02-13T19:14:40.789Z,61.30
2023-02-13T19:17:10.548Z,61.40
2023-02-13T19:19:38.902Z,61.30
2023-02-13T19:22:07.024Z,61.20
2023-02-13T19:24:35.062Z,61.20
2023-02-13T19:27:03.084Z,61.20
2023-02-13T19:29:31.075Z,61.20
2023-02-13T19:31:59.050Z,61.10
2023-02-13T19:34:28.329Z,61.10
2023-02-13T19:36:56.408Z,61.00
2023-02-13T19:39:24.343Z,60.90
2023-02-13T19:41:52.372Z,61.00
2023-02-13T19:44:20.539Z,60.90
2023-02-13T19:46:48.608Z,60.90
2023-02-13T19:49:16.777Z,60.90
2023-02-13T19:51:47.339Z,60.70
2023-02-13T19:54:15.322Z,60.70
2023-02-13T19:56:43.696Z,60.70
2023-02-13T19:59:13.604Z,60.60
2023-02-13T20:01:42.900Z,60.60
2023-02-13T20:04:11.217Z,60.60
2023-02-13T20:06:39.310Z,60.40
2023-02-13T20:09:10.391Z,60.50
2023-02-13T20:11:38.547Z,60.40
2023-02-13T20:14:11.416Z,60.30
2023-02-13T20:16:39.327Z,60.40
2023-02-13T20:19:13.732Z,60.30
2023-02-13T20:21:42.364Z,60.40
2023-02-13T20:24:12.268Z,60.20
2023-02-13T20:26:45.076Z,60.30
2023-02-13T20:29:13.187Z,60.30
2023-02-13T20:31:41.856Z,60.20
2023-02-13T20:34:10.105Z,61.30
2023-02-13T20:36:37.921Z,61.20
2023-02-13T20:39:06.771Z,61.20
2023-02-13T20:41:37.213Z,61.30
2023-02-13T20:44:06.488Z,61.10
2023-02-13T20:46:35.414Z,61.00
2023-02-13T20:49:03.507Z,60.90
2023-02-13T20:51:31.679Z,60.80
2023-02-13T20:54:00.347Z,61.00
2023-02-13T20:56:29.242Z,60.80
2023-02-13T20:58:59.526Z,60.70
2023-02-13T21:01:28.702Z,60.60
2023-02-13T21:03:56.721Z,60.60
2023-02-13T21:06:26.318Z,60.50
2023-02-13T21:08:54.154Z,60.60
2023-02-13T21:11:22.362Z,60.30
2023-02-13T21:13:50.456Z,60.30
2023-02-13T21:16:20.548Z,60.30
2023-02-13T21:18:48.798Z,60.30
2023-02-13T21:21:17.264Z,60.40
2023-02-13T21:23:45.086Z,60.20
2023-02-13T21:26:14.596Z,60.20
2023-02-13T21:28:43.004Z,60.10
2023-02-13T21:31:11.944Z,60.00
2023-02-13T21:33:41.740Z,60.00
2023-02-13T21:36:11.173Z,59.90
2023-02-13T21:38:39.536Z,60.00
2023-02-13T21:41:07.742Z,60.10
2023-02-13T21:43:38.129Z,60.00
2023-02-13T21:46:09.665Z,59.90
2023-02-13T21:48:37.714Z,59.90
2023-02-13T21:51:10.654Z,59.70
2023-02-13T21:53:38.678Z,59.80
2023-02-13T21:56:07.425Z,59.80
2023-02-13T21:58:35.486Z,59.70
2023-02-13T22:01:04.237Z,59.70
2023-02-13T22:03:33.742Z,59.70
2023-02-13T22:06:01.481Z,59.70
2023-02-13T22:08:30.550Z,59.60
2023-02-13T22:10:59.459Z,59.50
2023-02-13T22:13:27.668Z,59.60
2023-02-13T22:16:02.028Z,59.60
2023-02-13T22:18:32.040Z,59.50
2023-02-13T22:21:00.346Z,59.50
2023-02-13T22:23:30.186Z,59.50
2023-02-13T22:25:58.182Z,59.50
2023-02-13T22:28:26.226Z,59.40
2023-02-13T22:30:54.427Z,59.30
2023-02-13T22:33:22.371Z,59.20
2023-02-13T22:35:50.299Z,59.40
2023-02-13T22:38:18.063Z,59.30
2023-02-13T22:40:47.149Z,59.30
2023-02-13T22:43:15.127Z,59.20
2023-02-13T22:45:43.042Z,59.10
2023-02-13T22:48:11.106Z,59.20
2023-02-13T22:50:39.168Z,59.30
2023-02-13T22:53:07.327Z,59.20
2023-02-13T22:55:35.046Z,59.10
2023-02-13T22:58:04.529Z,59.20
2023-02-13T23:00:32.302Z,59.20
2023-02-13T23:03:00.266Z,59.20
2023-02-13T23:05:28.299Z,59.20
2023-02-13T23:07:56.808Z,59.30
2023-02-13T23:10:25.941Z,59.30
2023-02-13T23:12:53.256Z,59.40
2023-02-13T23:15:22.654Z,59.30
2023-02-13T23:18:08.415Z,59.40
2023-02-13T23:20:36.283Z,59.30
2023-02-13T23:23:04.958Z,59.40
2023-02-13T23:25:32.770Z,59.40
2023-02-13T23:28:01.112Z,59.30
2023-02-13T23:30:30.540Z,59.40
2023-02-13T23:32:58.953Z,59.40
2023-02-13T23:35:27.202Z,59.40
2023-02-13T23:37:55.138Z,59.30
2023-02-13T23:40:23.356Z,59.20
2023-02-13T23:42:51.215Z,59.30
2023-02-13T23:45:19.354Z,59.30
2023-02-13T23:47:48.577Z,59.30
2023-02-13T23:50:16.576Z,59.40
2023-02-13T23:52:44.413Z,59.40
2023-02-13T23:55:12.250Z,59.30
2023-02-13T23:57:40.137Z,59.30
